createdAt,value
2023-01-30T00:26:23.299Z,1012.9
2023-01-30T01:29:23.235Z,1012
2023-01-30T02:26:23.419Z,1010.9
2023-01-30T02:38:23.197Z,1010.8
2023-01-30T03:03:23.297Z,1010.5
2023-01-30T03:39:23.197Z,1010.1
2023-01-30T04:05:23.191Z,1009.8
2023-01-30T04:48:23.192Z,1009.6
2023-01-30T08:45:23.166Z,1010.6
2023-01-30T09:46:23.221Z,1011
2023-01-30T11:00:23.165Z,1011.3
2023-01-30T12:28:23.157Z,1011.4
2023-01-30T12:29:23.154Z,1011.5
2023-01-30T12:30:23.174Z,1011.5
2023-01-30T12:31:23.190Z,1011.5
2023-01-30T12:32:23.160Z,1011.4
2023-01-30T12:33:23.182Z,1011.5
2023-01-30T14:23:23.168Z,1012.7
2023-01-30T14:24:43.710Z,1012.6
2023-01-30T14:25:45.413Z,1012.7
2023-01-30T14:26:33.517Z,1012.7
2023-01-30T14:27:33.433Z,1012.6
2023-01-30T14:28:33.440Z,1012.5
2023-01-30T14:29:23.148Z,1012.6
2023-01-30T14:30:23.168Z,1012.6
2023-01-30T14:31:23.360Z,1012.5
2023-01-30T14:32:23.327Z,1012.6
2023-01-30T14:33:23.235Z,1012.6
2023-01-30T14:34:23.173Z,1012.6
2023-01-30T14:35:23.147Z,1012.8
2023-01-30T14:36:23.147Z,1012.7
2023-01-30T14:37:23.146Z,1012.7
2023-01-30T14:39:23.151Z,1012.8
2023-01-30T14:40:23.224Z,1012.7
2023-01-30T14:41:23.147Z,1012.8
2023-01-30T14:42:23.156Z,1012.8
2023-01-30T14:43:23.199Z,1012.8
2023-01-30T14:44:23.156Z,1012.9
2023-01-30T14:45:23.166Z,1012.9
2023-01-30T14:46:23.207Z,1012.9
2023-01-30T14:47:36.246Z,1012.9
2023-01-30T14:48:23.151Z,1012.9
2023-01-30T14:49:23.156Z,1013
2023-01-30T14:51:23.156Z,1013.1
2023-01-30T14:52:23.147Z,1013
2023-01-30T14:53:23.144Z,1013.2
2023-01-30T14:54:25.453Z,1013.2
2023-01-30T14:55:23.151Z,1013.2
2023-01-30T14:56:23.145Z,1013.1
2023-01-30T14:57:23.155Z,1013.2
2023-01-30T14:58:23.151Z,1013.2
2023-01-30T14:59:23.191Z,1013.2
2023-01-30T15:00:23.147Z,1013.2
2023-01-30T15:01:23.205Z,1013.2
2023-01-30T15:02:23.277Z,1013.3
2023-01-30T15:03:23.148Z,1013.3
2023-01-30T15:04:23.176Z,1013.3
2023-01-30T15:05:23.159Z,1013.3
2023-01-30T15:06:23.153Z,1013.3
2023-01-30T15:07:23.168Z,1013.4
2023-01-30T15:08:23.190Z,1013.4
2023-01-30T15:09:23.233Z,1013.4
2023-01-30T15:10:23.148Z,1013.4
2023-01-30T15:11:23.150Z,1013.4
2023-01-30T15:12:23.182Z,1013.4
2023-01-30T15:13:23.144Z,1013.5
2023-01-30T15:14:23.146Z,1013.5
2023-01-30T15:15:23.156Z,1013.5
2023-01-30T15:16:23.221Z,1013.5
2023-01-30T15:17:23.149Z,1013.5
2023-01-30T15:18:23.155Z,1013.6
2023-01-30T15:19:23.155Z,1013.6
2023-01-30T15:20:23.149Z,1013.6
2023-01-30T15:21:23.161Z,1013.6
2023-01-30T15:22:23.145Z,1013.6
2023-01-30T15:23:23.152Z,1013.7
2023-01-30T15:24:23.217Z,1013.7
2023-01-30T15:25:23.142Z,1013.7
2023-01-30T15:26:23.172Z,1013.7
2023-01-30T15:27:23.161Z,1013.8
2023-01-30T15:28:23.147Z,1013.8
2023-01-30T15:29:23.152Z,1013.8
2023-01-30T15:30:23.194Z,1013.8
2023-01-30T15:31:23.366Z,1013.8
2023-01-30T15:32:23.153Z,1013.8
2023-01-30T15:33:31.039Z,1013.8
2023-01-30T15:34:23.148Z,1013.8
2023-01-30T15:35:23.161Z,1013.8
2023-01-30T15:36:23.153Z,1013.9
2023-01-30T15:37:23.143Z,1013.8
2023-01-30T15:38:23.155Z,1013.9
2023-01-30T15:39:23.150Z,1013.9
2023-01-30T15:40:23.346Z,1013.9
2023-01-30T15:41:23.145Z,1013.9
2023-01-30T15:42:23.155Z,1014
2023-01-30T15:43:23.155Z,1014
2023-01-30T15:44:23.155Z,1014
2023-01-30T15:45:23.146Z,1014
2023-01-30T15:46:23.209Z,1014.1
2023-01-30T15:48:23.164Z,1014.1
2023-01-30T15:49:23.153Z,1014.1
2023-01-30T15:50:23.167Z,1014.1
2023-01-30T15:51:23.151Z,1014.2
2023-01-30T15:52:23.167Z,1014.2
2023-01-30T15:53:23.144Z,1014.2
2023-01-30T15:54:23.137Z,1014.2
2023-01-30T15:55:23.154Z,1014.2
2023-01-30T15:57:23.172Z,1014.1
2023-01-30T15:58:23.155Z,1014.2
2023-01-30T15:59:23.144Z,1014.2
2023-01-30T16:00:23.183Z,1014.2
2023-01-30T16:01:23.233Z,1014.2
2023-01-30T16:02:23.187Z,1014.2
2023-01-30T16:03:23.163Z,1014.2
2023-01-30T16:04:23.147Z,1014.2
2023-01-30T16:05:25.142Z,1014.3
2023-01-30T16:06:23.177Z,1014.3
2023-01-30T16:07:23.154Z,1014.3
2023-01-30T16:08:23.160Z,1014.3
2023-01-30T16:09:23.171Z,1014.4
2023-01-30T16:10:23.462Z,1014.4
2023-01-30T16:11:23.177Z,1014.4
2023-01-30T16:12:23.158Z,1014.4
2023-01-30T16:13:23.146Z,1014.5
2023-01-30T16:14:23.143Z,1014.5
2023-01-30T16:15:23.140Z,1014.5
2023-01-30T16:16:23.225Z,1014.6
2023-01-30T16:17:23.156Z,1014.6
2023-01-30T16:18:23.146Z,1014.6
2023-01-30T16:19:23.149Z,1014.6
2023-01-30T16:20:23.139Z,1014.7
2023-01-30T16:21:23.148Z,1014.7
2023-01-30T16:22:23.144Z,1014.6
2023-01-30T16:23:23.150Z,1014.6
2023-01-30T16:24:23.162Z,1014.7
2023-01-30T16:25:23.164Z,1014.7
2023-01-30T16:26:23.192Z,1014.8
2023-01-30T16:27:23.151Z,1014.8
2023-01-30T16:28:23.163Z,1014.8
2023-01-30T16:29:23.141Z,1014.8
2023-01-30T16:30:23.144Z,1014.8
2023-01-30T16:32:23.147Z,1014.9
2023-01-30T16:33:23.144Z,1014.9
2023-01-30T16:34:23.146Z,1014.9
2023-01-30T16:35:26.897Z,1015
2023-01-30T16:36:23.145Z,1015
2023-01-30T16:37:23.167Z,1015
2023-01-30T16:38:23.155Z,1015
2023-01-30T16:39:23.142Z,1015.1
2023-01-30T16:40:23.142Z,1015.1
2023-01-30T16:41:23.148Z,1015.1
2023-01-30T16:42:23.171Z,1015.1
2023-01-30T16:43:23.164Z,1015.1
2023-01-30T16:44:23.149Z,1015.2
2023-01-30T16:45:23.158Z,1015.2
2023-01-30T16:46:23.177Z,1015.2
2023-01-30T16:47:23.195Z,1015.2
2023-01-30T16:48:23.619Z,1015.3
2023-01-30T16:49:23.144Z,1015.2
2023-01-30T16:50:23.146Z,1015.3
2023-01-30T16:51:23.151Z,1015.3
2023-01-30T16:52:23.145Z,1015.3
2023-01-30T16:53:23.184Z,1015.3
2023-01-30T16:54:23.141Z,1015.3
2023-01-30T16:55:23.139Z,1015.3
2023-01-30T16:56:23.142Z,1015.3
2023-01-30T16:57:23.161Z,1015.3
2023-01-30T16:58:23.138Z,1015.3
2023-01-30T16:59:23.139Z,1015.3
2023-01-30T17:00:23.147Z,1015.4
2023-01-30T17:01:23.320Z,1015.4
2023-01-30T17:02:23.144Z,1015.4
2023-01-30T17:03:23.177Z,1015.4
2023-01-30T17:04:23.148Z,1015.4
2023-01-30T17:05:23.156Z,1015.5
2023-01-30T17:06:23.145Z,1015.5
2023-01-30T17:07:23.139Z,1015.5
2023-01-30T17:08:23.162Z,1015.5
2023-01-30T17:09:23.140Z,1015.6
2023-01-30T17:10:23.136Z,1015.7
2023-01-30T17:11:23.149Z,1015.7
2023-01-30T17:12:23.145Z,1015.7
2023-01-30T17:13:25.125Z,1015.7
2023-01-30T17:14:23.206Z,1015.7
2023-01-30T17:15:23.144Z,1015.7
2023-01-30T17:16:23.148Z,1015.8
2023-01-30T17:17:23.148Z,1015.8
2023-01-30T17:18:23.146Z,1015.8
2023-01-30T17:19:23.158Z,1015.8
2023-01-30T17:21:23.154Z,1015.9
2023-01-30T17:22:23.146Z,1015.9
2023-01-30T17:24:23.157Z,1015.9
2023-01-30T17:25:23.603Z,1015.9
2023-01-30T17:26:23.170Z,1015.9
2023-01-30T17:27:23.157Z,1016
2023-01-30T17:28:23.140Z,1015.9
2023-01-30T17:29:29.034Z,1016
2023-01-30T17:30:23.133Z,1016
2023-01-30T17:31:23.295Z,1016
2023-01-30T17:32:23.141Z,1016
2023-01-30T17:33:23.181Z,1016.1
2023-01-30T17:34:23.142Z,1016.1
2023-01-30T17:35:23.151Z,1016.1
2023-01-30T17:36:24.366Z,1016.1
2023-01-30T17:37:23.172Z,1016.2
2023-01-30T17:38:23.141Z,1016.1
2023-01-30T17:39:23.141Z,1016.2
2023-01-30T17:40:23.160Z,1016.2
2023-01-30T17:41:23.162Z,1016.2
2023-01-30T17:42:23.159Z,1016.2
2023-01-30T17:43:23.151Z,1016.2
2023-01-30T17:44:23.202Z,1016.3
2023-01-30T17:45:23.143Z,1016.3
2023-01-30T17:46:23.225Z,1016.3
2023-01-30T17:48:23.149Z,1016.3
2023-01-30T17:49:23.145Z,1016.4
2023-01-30T17:51:23.140Z,1016.4
2023-01-30T17:52:23.155Z,1016.4
2023-01-30T17:53:23.142Z,1016.4
2023-01-30T17:54:23.142Z,1016.4
2023-01-30T17:55:23.203Z,1016.5
2023-01-30T17:56:23.137Z,1016.5
2023-01-30T17:57:23.146Z,1016.5
2023-01-30T17:58:23.133Z,1016.5
2023-01-30T17:59:23.139Z,1016.6
2023-01-30T18:00:23.519Z,1016.5
2023-01-30T18:01:23.211Z,1016.5
2023-01-30T18:02:23.168Z,1016.6
2023-01-30T18:03:23.139Z,1016.6
2023-01-30T18:04:23.157Z,1016.6
2023-01-30T18:05:23.140Z,1016.6
2023-01-30T18:06:23.139Z,1016.6
2023-01-30T18:07:23.145Z,1016.6
2023-01-30T18:08:23.149Z,1016.6
2023-01-30T18:09:23.141Z,1016.7
2023-01-30T18:10:23.307Z,1016.7
2023-01-30T18:12:23.146Z,1016.7
2023-01-30T18:13:23.142Z,1016.8
2023-01-30T18:14:23.797Z,1016.8
2023-01-30T18:15:23.189Z,1016.8
2023-01-30T18:16:23.225Z,1016.8
2023-01-30T18:17:23.140Z,1016.9
2023-01-30T18:18:23.147Z,1016.8
2023-01-30T18:19:23.147Z,1016.9
2023-01-30T18:20:23.218Z,1016.8
2023-01-30T18:21:23.157Z,1016.9
2023-01-30T18:22:23.157Z,1016.9
2023-01-30T18:23:23.143Z,1016.8
2023-01-30T18:24:23.144Z,1016.8
2023-01-30T18:25:23.154Z,1016.8
2023-01-30T18:26:23.161Z,1016.9
2023-01-30T18:27:23.147Z,1016.9
2023-01-30T18:28:23.140Z,1016.8
2023-01-30T18:29:23.142Z,1016.9
2023-01-30T18:30:23.649Z,1016.9
2023-01-30T18:31:23.269Z,1016.9
2023-01-30T18:32:23.194Z,1016.9
2023-01-30T18:33:23.138Z,1016.9
2023-01-30T18:34:23.145Z,1016.9
2023-01-30T18:35:23.381Z,1016.8
2023-01-30T18:36:23.162Z,1016.8
2023-01-30T18:37:23.156Z,1016.9
2023-01-30T18:38:23.145Z,1016.8
2023-01-30T18:39:23.144Z,1016.8
2023-01-30T18:40:23.592Z,1016.8
2023-01-30T18:41:23.142Z,1016.8
2023-01-30T18:42:23.141Z,1016.8
2023-01-30T18:43:23.512Z,1016.8
2023-01-30T18:44:23.135Z,1016.9
2023-01-30T18:45:23.137Z,1016.8
2023-01-30T18:46:23.230Z,1016.9
2023-01-30T18:47:23.137Z,1016.8
2023-01-30T18:48:23.147Z,1016.8
2023-01-30T18:49:23.140Z,1016.9
2023-01-30T18:50:23.171Z,1016.9
2023-01-30T18:51:23.138Z,1016.9
2023-01-30T18:52:23.154Z,1016.9
2023-01-30T18:53:23.143Z,1016.9
2023-01-30T18:54:23.135Z,1016.9
2023-01-30T18:55:23.228Z,1016.9
2023-01-30T18:56:23.163Z,1016.9
2023-01-30T18:57:23.137Z,1016.9
2023-01-30T18:58:23.139Z,1016.9
2023-01-30T18:59:23.130Z,1017
2023-01-30T19:00:23.437Z,1017
2023-01-30T19:01:23.192Z,1016.9
2023-01-30T19:02:23.205Z,1017
2023-01-30T19:03:23.139Z,1017
2023-01-30T19:04:23.134Z,1017
2023-01-30T19:05:23.135Z,1017
2023-01-30T19:06:23.158Z,1016.9
2023-01-30T19:07:23.140Z,1017
2023-01-30T19:08:23.156Z,1016.9
2023-01-30T19:10:23.173Z,1017
2023-01-30T19:11:23.139Z,1017
2023-01-30T19:12:23.139Z,1016.9
2023-01-30T19:13:23.151Z,1017
2023-01-30T19:14:23.129Z,1016.9
2023-01-30T19:15:23.138Z,1016.9
2023-01-30T19:16:23.144Z,1016.9
2023-01-30T19:17:23.828Z,1017
2023-01-30T19:18:23.145Z,1017
2023-01-30T19:19:23.556Z,1016.9
2023-01-30T19:20:24.656Z,1017
2023-01-30T19:21:23.490Z,1017
2023-01-30T19:22:23.577Z,1017
2023-01-30T19:23:23.463Z,1017
2023-01-30T19:24:23.598Z,1017.1
2023-01-30T19:25:23.742Z,1017.1
2023-01-30T19:26:23.518Z,1017.1
2023-01-30T19:27:23.539Z,1017.1
2023-01-30T19:28:23.138Z,1017.2
2023-01-30T19:29:23.138Z,1017.2
2023-01-30T19:30:23.216Z,1017.2
2023-01-30T19:31:23.292Z,1017.2
2023-01-30T19:32:23.135Z,1017.2
2023-01-30T19:33:23.135Z,1017.2
2023-01-30T19:34:23.127Z,1017.3
2023-01-30T19:35:23.137Z,1017.3
2023-01-30T19:36:23.140Z,1017.3
2023-01-30T19:37:23.299Z,1017.3
2023-01-30T19:38:23.132Z,1017.3
2023-01-30T19:39:23.144Z,1017.3
2023-01-30T19:40:23.133Z,1017.3
2023-01-30T19:41:23.166Z,1017.3
2023-01-30T19:42:23.135Z,1017.3
2023-01-30T19:43:23.129Z,1017.3
2023-01-30T19:44:23.129Z,1017.3
2023-01-30T19:45:23.141Z,1017.4
2023-01-30T19:46:23.193Z,1017.3
2023-01-30T19:47:23.128Z,1017.4
2023-01-30T19:48:23.166Z,1017.4
2023-01-30T19:49:23.142Z,1017.4
2023-01-30T19:50:23.148Z,1017.5
2023-01-30T19:51:23.130Z,1017.5
2023-01-30T19:52:23.143Z,1017.5
2023-01-30T19:53:23.133Z,1017.5
2023-01-30T19:54:23.129Z,1017.5
2023-01-30T19:55:23.136Z,1017.6
2023-01-30T19:56:23.140Z,1017.6
2023-01-30T19:57:23.139Z,1017.6
2023-01-30T19:58:23.142Z,1017.6
2023-01-30T19:59:23.167Z,1017.7
2023-01-30T20:00:23.130Z,1017.7
2023-01-30T20:03:23.138Z,1017.8
2023-01-30T20:04:23.161Z,1017.8
2023-01-30T20:05:23.148Z,1017.8
2023-01-30T20:06:23.149Z,1017.8
2023-01-30T20:07:23.800Z,1017.9
2023-01-30T20:08:32.327Z,1017.8
2023-01-30T20:09:23.134Z,1017.9
2023-01-30T20:10:23.250Z,1017.9
2023-01-30T20:11:23.166Z,1017.9
2023-01-30T20:12:23.140Z,1017.9
2023-01-30T20:13:23.121Z,1017.9
2023-01-30T20:14:23.155Z,1017.9
2023-01-30T20:15:23.144Z,1017.9
2023-01-30T20:16:23.219Z,1017.9
2023-01-30T20:17:23.128Z,1018
2023-01-30T20:18:23.296Z,1018
2023-01-30T20:19:23.165Z,1018
2023-01-30T20:20:23.138Z,1018
2023-01-30T20:22:23.133Z,1018
2023-01-30T20:23:23.131Z,1018.1
2023-01-30T20:24:23.189Z,1018.1
2023-01-30T20:25:23.144Z,1018.1
2023-01-30T20:26:23.156Z,1018.1
2023-01-30T20:27:23.138Z,1018.1
2023-01-30T20:28:23.167Z,1018.1
2023-01-30T20:30:23.129Z,1018.2
2023-01-30T20:31:23.331Z,1018.2
2023-01-30T20:32:23.150Z,1018.2
2023-01-30T20:33:23.132Z,1018.2
2023-01-30T20:34:23.129Z,1018.2
2023-01-30T20:35:23.140Z,1018.2
2023-01-30T20:36:23.131Z,1018.2
2023-01-30T20:37:23.134Z,1018.2
2023-01-30T20:38:23.138Z,1018.2
2023-01-30T20:39:23.132Z,1018.2
2023-01-30T20:40:23.222Z,1018.2
2023-01-30T20:41:23.154Z,1018.2
2023-01-30T20:42:23.125Z,1018.2
2023-01-30T20:43:23.138Z,1018.3
2023-01-30T20:44:23.132Z,1018.2
2023-01-30T20:45:23.131Z,1018.3
2023-01-30T20:46:23.310Z,1018.3
2023-01-30T20:47:23.139Z,1018.2
2023-01-30T20:48:23.124Z,1018.3
2023-01-30T20:49:23.138Z,1018.2
2023-01-30T20:50:23.161Z,1018.2
2023-01-30T20:51:23.147Z,1018.3
2023-01-30T20:52:23.127Z,1018.3
2023-01-30T20:53:23.130Z,1018.3
2023-01-30T20:54:23.161Z,1018.3
2023-01-30T20:55:23.123Z,1018.3
2023-01-30T20:56:23.129Z,1018.3
2023-01-30T20:57:23.127Z,1018.3
2023-01-30T20:58:23.139Z,1018.4
2023-01-30T20:59:23.125Z,1018.4
2023-01-30T21:00:23.133Z,1018.4
2023-01-30T21:01:23.242Z,1018.4
2023-01-30T21:02:23.138Z,1018.4
2023-01-30T21:03:23.127Z,1018.4
2023-01-30T21:04:23.213Z,1018.4
2023-01-30T21:05:23.146Z,1018.3
2023-01-30T21:06:37.159Z,1018.3
2023-01-30T21:07:23.189Z,1018.3
2023-01-30T21:08:23.136Z,1018.4
2023-01-30T21:09:23.135Z,1018.3
2023-01-30T21:10:23.128Z,1018.3
2023-01-30T21:11:23.121Z,1018.3
2023-01-30T21:12:23.132Z,1018.3
2023-01-30T21:13:23.123Z,1018.3
2023-01-30T21:14:25.058Z,1018.3
2023-01-30T21:15:23.132Z,1018.4
2023-01-30T21:16:23.239Z,1018.4
2023-01-30T21:18:23.133Z,1018.4
2023-01-30T21:19:23.127Z,1018.4
2023-01-30T21:20:23.176Z,1018.4
2023-01-30T21:21:23.158Z,1018.4
2023-01-30T21:22:23.136Z,1018.4
2023-01-30T21:23:23.188Z,1018.4
2023-01-30T21:24:23.132Z,1018.4
2023-01-30T21:25:23.130Z,1018.5
2023-01-30T21:26:23.178Z,1018.4
2023-01-30T21:27:23.172Z,1018.4
2023-01-30T21:28:23.130Z,1018.5
2023-01-30T21:29:23.128Z,1018.5
2023-01-30T21:30:23.507Z,1018.5
2023-01-30T21:31:23.418Z,1018.4
2023-01-30T21:32:23.134Z,1018.4
2023-01-30T21:33:23.134Z,1018.5
2023-01-30T21:34:23.134Z,1018.5
2023-01-30T21:35:23.135Z,1018.5
2023-01-30T21:36:23.125Z,1018.6
2023-01-30T21:37:23.124Z,1018.5
2023-01-30T21:38:23.133Z,1018.6
2023-01-30T21:39:23.139Z,1018.6
2023-01-30T21:40:23.136Z,1018.6
2023-01-30T21:41:23.133Z,1018.5
2023-01-30T21:42:23.132Z,1018.6
2023-01-30T21:43:23.146Z,1018.5
2023-01-30T21:44:23.140Z,1018.5
2023-01-30T21:45:23.346Z,1018.5
2023-01-30T21:46:23.244Z,1018.5
2023-01-30T21:47:23.126Z,1018.5
2023-01-30T21:48:23.153Z,1018.5
2023-01-30T21:49:23.129Z,1018.5
2023-01-30T21:50:23.121Z,1018.5
2023-01-30T21:51:23.132Z,1018.5
2023-01-30T21:52:23.160Z,1018.5
2023-01-30T21:53:23.139Z,1018.6
2023-01-30T21:54:23.132Z,1018.6
2023-01-30T21:55:23.117Z,1018.6
2023-01-30T21:56:23.167Z,1018.6
2023-01-30T21:57:23.134Z,1018.6
2023-01-30T21:58:23.117Z,1018.5
2023-01-30T21:59:23.131Z,1018.6
2023-01-30T22:00:23.121Z,1018.6
2023-01-30T22:01:23.150Z,1018.6
2023-01-30T22:02:23.131Z,1018.6
2023-01-30T22:03:23.171Z,1018.6
2023-01-30T22:04:23.130Z,1018.6
2023-01-30T22:05:23.127Z,1018.6
2023-01-30T22:06:23.125Z,1018.7
2023-01-30T22:07:23.156Z,1018.7
2023-01-30T22:08:23.148Z,1018.7
2023-01-30T22:09:23.118Z,1018.8
2023-01-30T22:10:23.120Z,1018.7
2023-01-30T22:11:23.134Z,1018.7
2023-01-30T22:12:23.125Z,1018.7
2023-01-30T22:13:23.145Z,1018.8
2023-01-30T22:14:23.136Z,1018.8
2023-01-30T22:15:23.141Z,1018.8
2023-01-30T22:16:23.124Z,1018.8
2023-01-30T22:17:23.190Z,1018.8
2023-01-30T22:18:23.125Z,1018.8
2023-01-30T22:19:23.138Z,1018.8
2023-01-30T22:20:23.131Z,1018.8
2023-01-30T22:21:23.130Z,1018.7
2023-01-30T22:22:23.124Z,1018.7
2023-01-30T22:23:23.166Z,1018.7
2023-01-30T22:24:23.122Z,1018.7
2023-01-30T22:25:23.123Z,1018.7
2023-01-30T22:26:23.198Z,1018.7
2023-01-30T22:27:23.135Z,1018.7
2023-01-30T22:28:23.121Z,1018.7
2023-01-30T22:29:23.125Z,1018.6
2023-01-30T22:30:23.225Z,1018.6
2023-01-30T22:31:23.279Z,1018.6
2023-01-30T22:32:23.116Z,1018.6
2023-01-30T22:33:23.116Z,1018.7
2023-01-30T22:34:23.170Z,1018.7
2023-01-30T22:35:23.127Z,1018.7
2023-01-30T22:36:23.114Z,1018.8
2023-01-30T22:37:23.121Z,1018.8
2023-01-30T22:38:23.119Z,1018.8
2023-01-30T22:39:23.130Z,1018.8
2023-01-30T22:40:23.120Z,1018.8
2023-01-30T22:41:23.130Z,1018.8
2023-01-30T22:42:23.128Z,1018.8
2023-01-30T22:43:23.133Z,1018.8
2023-01-30T22:44:23.166Z,1018.8
2023-01-30T22:45:23.142Z,1018.8
2023-01-30T22:46:23.132Z,1018.8
2023-01-30T22:47:23.192Z,1018.8
2023-01-30T22:48:23.115Z,1018.8
2023-01-30T22:49:23.121Z,1018.9
2023-01-30T22:50:23.114Z,1018.9
2023-01-30T22:51:23.141Z,1018.9
2023-01-30T22:52:23.151Z,1018.9
2023-01-30T22:53:23.124Z,1018.9
2023-01-30T22:55:23.125Z,1018.9
2023-01-30T22:56:23.127Z,1019
2023-01-30T22:57:23.124Z,1019
2023-01-30T22:58:23.115Z,1019
2023-01-30T22:59:23.115Z,1019
2023-01-30T23:00:23.117Z,1018.9
2023-01-30T23:01:23.123Z,1019
2023-01-30T23:02:23.190Z,1018.9
2023-01-30T23:03:23.141Z,1018.9
2023-01-30T23:04:23.117Z,1018.9
2023-01-30T23:05:23.128Z,1018.9
2023-01-30T23:06:23.124Z,1018.9
2023-01-30T23:07:23.127Z,1018.9
2023-01-30T23:08:24.065Z,1018.8
2023-01-30T23:09:23.140Z,1018.9
2023-01-30T23:10:23.121Z,1018.9
2023-01-30T23:11:23.122Z,1018.9
2023-01-30T23:12:23.124Z,1019
2023-01-30T23:13:23.122Z,1019
2023-01-30T23:14:23.132Z,1018.9
2023-01-30T23:15:23.118Z,1018.9
2023-01-30T23:16:23.187Z,1018.9
2023-01-30T23:17:23.131Z,1018.9
2023-01-30T23:18:23.228Z,1018.9
2023-01-30T23:19:23.121Z,1018.8
2023-01-30T23:20:23.151Z,1018.8
2023-01-30T23:21:23.133Z,1018.8
2023-01-30T23:22:23.123Z,1018.8
2023-01-30T23:24:23.125Z,1018.8
2023-01-30T23:25:23.143Z,1018.8
2023-01-30T23:27:23.321Z,1018.8
2023-01-30T23:28:23.130Z,1018.9
2023-01-30T23:29:23.115Z,1019
2023-01-30T23:30:23.123Z,1019
2023-01-30T23:31:23.182Z,1019
2023-01-30T23:32:23.115Z,1019
2023-01-30T23:33:23.170Z,1019
2023-01-30T23:34:23.117Z,1019
2023-01-30T23:35:23.130Z,1018.9
2023-01-30T23:36:23.119Z,1018.9
2023-01-30T23:37:23.116Z,1018.9
2023-01-30T23:38:23.117Z,1018.9
2023-01-30T23:39:23.112Z,1018.8
2023-01-30T23:40:23.151Z,1018.9
2023-01-30T23:41:23.117Z,1018.9
2023-01-30T23:42:23.121Z,1019
2023-01-30T23:43:23.112Z,1019
2023-01-30T23:44:23.108Z,1019
2023-01-30T23:45:23.119Z,1019
2023-01-30T23:46:23.176Z,1019
2023-01-30T23:47:23.121Z,1019.1
2023-01-30T23:48:23.121Z,1019
2023-01-30T23:49:23.111Z,1019
2023-01-30T23:50:23.114Z,1019
2023-01-30T23:51:23.123Z,1019
2023-01-30T23:52:23.111Z,1019
2023-01-30T23:53:23.127Z,1018.9
2023-01-30T23:54:23.129Z,1019
2023-01-30T23:55:23.118Z,1018.9
2023-01-30T23:56:23.164Z,1018.9
2023-01-30T23:57:23.127Z,1018.9
2023-01-30T23:58:23.122Z,1018.9
2023-01-30T23:59:23.122Z,1019
